createdAt,value
2022-08-07T00:00:03.443Z,15.4
2022-08-07T00:05:00.362Z,15.3
2022-08-07T00:10:25.473Z,15.3
2022-08-07T00:15:00.222Z,15.2
2022-08-07T00:20:03.330Z,15.1
2022-08-07T00:25:00.259Z,15.1
2022-08-07T00:30:00.323Z,15
2022-08-07T00:35:00.128Z,15
2022-08-07T00:40:00.433Z,14.9
2022-08-07T00:45:00.190Z,14.8
2022-08-07T00:50:19.337Z,14.8
2022-08-07T00:55:05.014Z,14.7
2022-08-07T01:00:00.911Z,14.7
2022-08-07T01:05:00.239Z,14.6
2022-08-07T01:10:05.862Z,14.6
2022-08-07T01:15:01.716Z,14.5
2022-08-07T01:20:00.290Z,14.4
2022-08-07T01:25:00.233Z,14.4
2022-08-07T01:30:00.504Z,14.3
2022-08-07T01:35:00.270Z,14.2
2022-08-07T01:40:00.870Z,14.2
2022-08-07T01:45:00.191Z,14.2
2022-08-07T01:50:00.594Z,14.1
2022-08-07T01:55:00.204Z,14
2022-08-07T02:00:00.252Z,14
2022-08-07T02:05:00.123Z,13.9
2022-08-07T02:10:00.235Z,13.8
2022-08-07T02:15:00.582Z,13.8
2022-08-07T02:20:07.075Z,13.8
2022-08-07T02:25:00.139Z,13.8
2022-08-07T02:30:03.958Z,13.7
2022-08-07T02:35:01.019Z,13.6
2022-08-07T02:40:02.216Z,13.6
2022-08-07T02:45:00.131Z,13.6
2022-08-07T02:50:00.507Z,13.5
2022-08-07T02:55:00.218Z,13.5
2022-08-07T03:00:00.876Z,13.4
2022-08-07T03:05:00.130Z,13.4
2022-08-07T03:10:00.210Z,13.4
2022-08-07T03:15:02.549Z,13.3
2022-08-07T03:20:00.204Z,13.2
2022-08-07T03:25:00.406Z,13.2
2022-08-07T03:30:00.312Z,13.1
2022-08-07T03:35:16.559Z,13.1
2022-08-07T03:40:15.310Z,13
2022-08-07T03:45:01.393Z,13
2022-08-07T03:50:00.252Z,13
2022-08-07T03:55:06.260Z,12.9
2022-08-07T04:00:02.616Z,12.9
2022-08-07T04:05:00.150Z,12.8
2022-08-07T04:10:02.118Z,12.8
2022-08-07T04:15:00.487Z,12.8
2022-08-07T04:20:00.223Z,12.7
2022-08-07T04:25:01.203Z,12.6
2022-08-07T04:30:01.941Z,12.6
2022-08-07T04:35:00.201Z,12.6
2022-08-07T04:40:00.405Z,12.5
2022-08-07T04:45:02.881Z,12.5
2022-08-07T04:50:04.083Z,12.5
2022-08-07T04:55:00.165Z,12.5
2022-08-07T05:00:12.396Z,12.5
2022-08-07T05:05:00.132Z,12.5
2022-08-07T05:10:00.842Z,12.5
2022-08-07T05:15:04.241Z,12.6
2022-08-07T05:20:00.249Z,12.6
2022-08-07T05:25:00.419Z,12.6
2022-08-07T05:30:01.013Z,12.6
2022-08-07T05:35:00.131Z,12.6
2022-08-07T05:40:14.397Z,12.6
2022-08-07T05:45:14.149Z,12.6
2022-08-07T05:50:00.258Z,12.7
2022-08-07T05:55:06.786Z,12.7
2022-08-07T06:00:00.303Z,12.8
2022-08-07T06:05:00.204Z,12.8
2022-08-07T06:10:05.778Z,12.9
2022-08-07T06:15:05.854Z,13
2022-08-07T06:20:04.242Z,13
2022-08-07T06:25:01.181Z,13.1
2022-08-07T06:30:00.393Z,13.2
2022-08-07T06:35:00.178Z,13.2
2022-08-07T06:40:17.475Z,13.3
2022-08-07T06:45:00.182Z,13.4
2022-08-07T06:50:00.267Z,13.5
2022-08-07T06:55:33.047Z,13.6
2022-08-07T07:00:14.269Z,13.7
2022-08-07T07:05:00.150Z,13.8
2022-08-07T07:10:00.327Z,14
2022-08-07T07:15:00.186Z,14.2
2022-08-07T07:20:00.256Z,14.3
2022-08-07T07:25:13.848Z,14.5
2022-08-07T07:30:08.999Z,14.6
2022-08-07T07:35:00.232Z,14.8
2022-08-07T07:40:00.277Z,15
2022-08-07T07:45:00.197Z,15
2022-08-07T07:50:33.285Z,15.3
2022-08-07T07:55:00.219Z,15.4
2022-08-07T08:00:00.274Z,15.6
2022-08-07T08:05:00.214Z,15.7
2022-08-07T08:10:05.301Z,15.9
2022-08-07T08:15:00.211Z,16
2022-08-07T08:20:16.199Z,16.2
2022-08-07T08:25:18.597Z,16.3
2022-08-07T08:30:03.884Z,16.6
2022-08-07T08:35:00.170Z,16.7
2022-08-07T08:40:00.368Z,16.9
2022-08-07T08:45:00.165Z,17.1
2022-08-07T08:50:04.969Z,17.3
2022-08-07T08:55:01.195Z,17.4
2022-08-07T09:00:00.296Z,17.6
2022-08-07T09:05:00.142Z,17.8
2022-08-07T09:10:02.457Z,17.9
2022-08-07T09:15:00.131Z,18
2022-08-07T09:20:00.159Z,18.3
2022-08-07T09:25:07.044Z,18.5
2022-08-07T09:30:04.151Z,18.7
2022-08-07T09:35:00.127Z,18.8
2022-08-07T09:40:00.362Z,19
2022-08-07T09:47:52.543Z,19
2022-08-07T09:50:18.697Z,19.2
2022-08-07T09:55:00.217Z,19.2
2022-08-07T10:00:01.810Z,19.4
2022-08-07T10:05:00.430Z,19.6
2022-08-07T10:10:02.981Z,19.7
2022-08-07T10:15:00.203Z,19.8
2022-08-07T10:20:00.285Z,20
2022-08-07T10:25:00.270Z,20
2022-08-07T10:30:00.226Z,20.1
2022-08-07T10:35:00.305Z,20.2
2022-08-07T10:40:05.557Z,20.2
2022-08-07T10:45:00.161Z,20.4
2022-08-07T10:50:00.223Z,20.5
2022-08-07T10:55:01.433Z,20.6
2022-08-07T11:00:00.264Z,20.6
2022-08-07T11:05:01.675Z,20.7
2022-08-07T11:10:07.531Z,20.7
2022-08-07T11:15:01.030Z,20.7
2022-08-07T11:20:03.427Z,20.9
2022-08-07T11:25:00.218Z,21
2022-08-07T11:30:17.863Z,21.1
2022-08-07T11:35:00.241Z,21.3
2022-08-07T11:40:02.002Z,21.4
2022-08-07T11:45:00.275Z,21.5
2022-08-07T11:50:31.180Z,21.6
2022-08-07T11:55:00.132Z,21.6
2022-08-07T12:00:11.107Z,21.8
2022-08-07T12:05:00.231Z,21.9
2022-08-07T12:10:02.170Z,22
2022-08-07T12:15:01.663Z,22.1
2022-08-07T12:20:06.290Z,22.3
2022-08-07T12:25:02.256Z,22.6
2022-08-07T12:30:00.267Z,22.6
2022-08-07T12:35:00.844Z,22.7
2022-08-07T12:40:00.311Z,22.7
2022-08-07T12:45:00.297Z,22.8
2022-08-07T12:50:05.063Z,23
2022-08-07T12:55:05.632Z,22.9
2022-08-07T13:00:00.289Z,23.1
2022-08-07T13:05:01.646Z,23.3
2022-08-07T13:10:28.791Z,23.4
2022-08-07T13:15:00.257Z,23.6
2022-08-07T13:20:00.256Z,23.7
2022-08-07T13:25:00.379Z,23.8
2022-08-07T13:30:03.773Z,24.1
2022-08-07T13:35:00.239Z,24.4
2022-08-07T13:40:36.305Z,24.6
2022-08-07T13:45:40.619Z,24.8
2022-08-07T13:50:34.858Z,24.9
2022-08-07T13:55:00.613Z,25
2022-08-07T14:00:00.387Z,24.9
2022-08-07T14:05:00.405Z,24.7
2022-08-07T14:10:17.420Z,24.8
2022-08-07T14:15:00.228Z,24.8
2022-08-07T14:20:40.177Z,24.6
2022-08-07T14:25:00.237Z,24.6
2022-08-07T14:30:05.010Z,24.8
2022-08-07T14:35:00.226Z,24.8
2022-08-07T14:40:17.391Z,24.8
2022-08-07T14:45:00.149Z,24.9
2022-08-07T14:50:00.347Z,25
2022-08-07T14:55:00.240Z,25.2
2022-08-07T15:00:03.508Z,25.5
2022-08-07T15:05:01.749Z,25.5
2022-08-07T15:10:04.659Z,25.4
2022-08-07T15:15:00.124Z,25.5
2022-08-07T15:20:33.904Z,25.4
2022-08-07T15:25:15.573Z,25.3
2022-08-07T15:30:14.558Z,25.2
2022-08-07T15:35:00.139Z,25.2
2022-08-07T15:40:00.261Z,25.1
2022-08-07T15:45:00.189Z,25.1
2022-08-07T15:50:04.952Z,25.2
2022-08-07T15:55:02.634Z,25.3
2022-08-07T16:00:04.306Z,25.3
2022-08-07T16:05:00.287Z,25.4
2022-08-07T16:10:00.255Z,25.4
2022-08-07T16:15:00.302Z,25.3
2022-08-07T16:20:00.314Z,25.3
2022-08-07T16:25:00.166Z,25.3
2022-08-07T16:30:10.860Z,25.2
2022-08-07T16:35:00.166Z,25.2
2022-08-07T16:40:00.333Z,25.1
2022-08-07T16:45:24.732Z,25.1
2022-08-07T16:50:28.168Z,25
2022-08-07T16:55:00.155Z,25
2022-08-07T17:00:00.338Z,25
2022-08-07T17:05:00.135Z,24.9
2022-08-07T17:10:06.620Z,24.8
2022-08-07T17:15:00.233Z,24.7
2022-08-07T17:20:02.157Z,24.6
2022-08-07T17:25:00.139Z,24.5
2022-08-07T17:30:16.238Z,24.4
2022-08-07T17:35:51.306Z,24.3
2022-08-07T17:40:05.449Z,24.1
2022-08-07T17:45:00.128Z,24
2022-08-07T17:50:00.241Z,24
2022-08-07T17:55:00.130Z,23.8
2022-08-07T18:00:00.292Z,23.7
2022-08-07T18:05:00.210Z,23.6
2022-08-07T18:10:06.175Z,23.5
2022-08-07T18:15:00.128Z,23.4
2022-08-07T18:21:08.596Z,23.3
2022-08-07T18:25:00.246Z,23.2
2022-08-07T18:30:05.978Z,23.1
2022-08-07T18:35:01.239Z,23
2022-08-07T18:40:06.482Z,23
2022-08-07T18:45:43.639Z,22.9
2022-08-07T18:50:32.921Z,22.8
2022-08-07T18:55:08.414Z,22.7
2022-08-07T19:00:00.693Z,22.6
2022-08-07T19:05:14.846Z,22.5
2022-08-07T19:10:00.350Z,22.4
2022-08-07T19:15:00.556Z,22.3
2022-08-07T19:20:00.372Z,22.2
2022-08-07T19:25:05.456Z,22.1
2022-08-07T19:31:02.237Z,22
2022-08-07T19:35:00.158Z,21.9
2022-08-07T19:40:01.818Z,21.7
2022-08-07T19:45:00.510Z,21.6
2022-08-07T19:50:03.151Z,21.5
2022-08-07T19:55:00.156Z,21.4
2022-08-07T20:00:08.806Z,21.4
2022-08-07T20:05:00.470Z,21.2
2022-08-07T20:10:33.890Z,21.1
2022-08-07T20:15:00.129Z,21
2022-08-07T20:20:00.648Z,21
2022-08-07T20:25:00.242Z,20.8
2022-08-07T20:30:00.529Z,20.8
2022-08-07T20:35:00.131Z,20.6
2022-08-07T20:40:02.340Z,20.6
2022-08-07T20:45:00.255Z,20.5
2022-08-07T20:50:02.231Z,20.4
2022-08-07T20:55:00.134Z,20.3
2022-08-07T21:00:07.427Z,20.2
2022-08-07T21:05:00.134Z,20.2
2022-08-07T21:10:00.886Z,20.1
2022-08-07T21:15:00.954Z,20
2022-08-07T21:20:05.231Z,19.9
2022-08-07T21:25:00.215Z,19.9
2022-08-07T21:30:00.311Z,19.8
2022-08-07T21:35:00.141Z,19.8
2022-08-07T21:40:00.326Z,19.7
2022-08-07T21:45:00.192Z,19.6
2022-08-07T21:50:02.557Z,19.6
2022-08-07T21:55:00.143Z,19.5
2022-08-07T22:00:04.139Z,19.4
2022-08-07T22:05:00.142Z,19.4
2022-08-07T22:10:00.487Z,19.4
2022-08-07T22:15:00.616Z,19.3
2022-08-07T22:20:00.974Z,19.2
2022-08-07T22:25:00.142Z,19.2
2022-08-07T22:30:00.227Z,19.1
2022-08-07T22:35:00.235Z,19
2022-08-07T22:40:00.358Z,19
2022-08-07T22:45:02.489Z,18.8
2022-08-07T22:50:00.200Z,18.8
2022-08-07T22:55:00.209Z,18.7
2022-08-07T23:00:00.288Z,18.6
2022-08-07T23:06:09.434Z,18.6
2022-08-07T23:10:05.281Z,18.5
2022-08-07T23:15:00.202Z,18.4
2022-08-07T23:20:02.784Z,18.3
2022-08-07T23:25:00.128Z,18.2
2022-08-07T23:30:37.395Z,18.1
2022-08-07T23:35:01.049Z,18
2022-08-07T23:40:00.463Z,17.9
2022-08-07T23:45:00.166Z,17.8
2022-08-07T23:50:00.180Z,17.8
2022-08-07T23:55:00.135Z,17.7
